Emmonak, AK

11:11 AM AKDT on September 22, 2014 (GMT -0800)
Emmonak | Change Station
CLOSE
Current Station
Airport
Location: Emmonak,
Elevation: 13 ft
Nearby Weather Stations

Elev 13 ft 62.79 °N, 164.49 °W | Updated 15 minutes ago

Overcast
Overcast
45 °F
Feels Like 39 °F
N
10
Wind Variable Wind from SSW

Today
High -- | Low -- °F
--% Chance of Precip.
Yesterday
High -- | Low -- °F
Precip. -- in
8:41 AM 8:56 PM
Waning Crescent, 2% visible
Pressure 29.78 in
Visibility 10.0 miles
Clouds Overcast 3200 ft
Windchill 39 °F
Dew Point 34 °F
Humidity 66%
Rainfall 0.00 in
Snow Depth 0 in , 1 in , 2 in
UV 0 out of 12
Pollen Not available.
Air Quality Not available.
Flu Activity Not available.
METAR PAEM 221856Z AUTO 20009KT 10SM OVC032 07/01 A2978 RMK AO1

More Conditions Fewer Conditions

Pressure 29.78 in
Visibility 10.0 miles
Clouds Overcast 3200 ft
Windchill 39 °F
Dew Point 34 °F
Humidity 66%
Rainfall 0.00 in
Snow Depth 0 in , 1 in , 2 in
UV 0 out of 12
Pollen Not available.
Air Quality Not available.
Flu Activity Not available.
METAR PAEM 221856Z AUTO 20009KT 10SM OVC032 07/01 A2978 RMK AO1

More Conditions Fewer Conditions

10-Day Weather Forecast

Almanac

Astronomy

Sep. 22, 2014 Rise Set
Actual Time 8:41 AM AKDT 8:56 PM AKDT
Civil Twilight 7:55 AM AKDT 9:42 PM AKDT
Nautical Twilight 6:59 AM AKDT 10:37 PM AKDT
Astronomical Twilight 5:56 AM AKDT 11:39 PM AKDT
Moon 7:05 AM AKDT 8:17 PM AKDT
Length of Visible Light 13h 46m
Length of Day
12h 15m
Tomorrow will be 6m 5s shorter.
Waning Crescent, 2% of the Moon is Illuminated
Today
Waning Crescent
Sep 24
New
Oct 1
First Quarter
Oct 8
Full
Oct 15
Last Quarter

Today's Extremes

State Highs State Lows

Community

WunderPhotos

Upload Photos

1,755,514 photos uploaded!

WunderBlogs® & News

Nearby

Snow Depth

Station Depth Elevation
Grouse Creek Divide 0 in 700 ft
Upper Chena 1 in 2850 ft
Susitna Valley High 2 in 375 ft
Upper Tsaina River 0 in 1750 ft
Munson Ridge 0 in 3100 ft

Earthquake Activity

City Distance Mag. Time & Date
No recent earthquake activity has been reported nearby.
Minimum magnitude displayed is 2.5.

Coastal Water Temperatures

Place Temperature
No Stations Reporting

Nearby Weather Stations